sensor_id;sensor_type;location;lat;lon;timestamp;P1;durP1;ratioP1;P2;durP2;ratioP2
4957;SDS011;2494;51.872;9.688;2023-05-24T00:01:52;16.10;;;2.90;;
4957;SDS011;2494;51.872;9.688;2023-05-24T00:04:39;7.57;;;2.53;;
4957;SDS011;2494;51.872;9.688;2023-05-24T00:07:24;11.87;;;2.90;;
4957;SDS011;2494;51.872;9.688;2023-05-24T00:10:11;5.73;;;3.83;;
4957;SDS011;2494;51.872;9.688;2023-05-24T00:12:56;8.97;;;3.33;;
4957;SDS011;2494;51.872;9.688;2023-05-24T00:15:41;8.40;;;3.07;;
4957;SDS011;2494;51.872;9.688;2023-05-24T00:18:26;9.70;;;3.40;;
4957;SDS011;2494;51.872;9.688;2023-05-24T00:21:14;10.03;;;3.40;;
4957;SDS011;2494;51.872;9.688;2023-05-24T00:23:58;7.93;;;3.13;;
4957;SDS011;2494;51.872;9.688;2023-05-24T00:26:45;8.93;;;3.30;;
4957;SDS011;2494;51.872;9.688;2023-05-24T00:29:31;7.97;;;3.57;;
4957;SDS011;2494;51.872;9.688;2023-05-24T00:32:16;7.13;;;2.60;;
4957;SDS011;2494;51.872;9.688;2023-05-24T00:35:01;12.10;;;3.10;;
4957;SDS011;2494;51.872;9.688;2023-05-24T00:37:46;8.33;;;3.20;;
4957;SDS011;2494;51.872;9.688;2023-05-24T00:40:31;14.37;;;3.00;;
4957;SDS011;2494;51.872;9.688;2023-05-24T00:43:17;10.93;;;2.63;;
4957;SDS011;2494;51.872;9.688;2023-05-24T00:46:13;8.87;;;3.00;;
4957;SDS011;2494;51.872;9.688;2023-05-24T00:48:59;7.93;;;3.23;;
4957;SDS011;2494;51.872;9.688;2023-05-24T00:51:44;6.33;;;2.87;;
4957;SDS011;2494;51.872;9.688;2023-05-24T00:54:30;13.23;;;3.90;;
4957;SDS011;2494;51.872;9.688;2023-05-24T00:57:15;9.37;;;2.97;;
4957;SDS011;2494;51.872;9.688;2023-05-24T01:00:03;12.87;;;2.90;;
4957;SDS011;2494;51.872;9.688;2023-05-24T01:02:48;11.20;;;3.47;;
4957;SDS011;2494;51.872;9.688;2023-05-24T01:05:33;6.27;;;4.00;;
4957;SDS011;2494;51.872;9.688;2023-05-24T01:08:20;13.63;;;2.93;;
4957;SDS011;2494;51.872;9.688;2023-05-24T01:11:11;11.43;;;2.63;;
4957;SDS011;2494;51.872;9.688;2023-05-24T01:14:02;7.33;;;2.53;;
4957;SDS011;2494;51.872;9.688;2023-05-24T01:16:52;10.20;;;3.47;;
4957;SDS011;2494;51.872;9.688;2023-05-24T01:19:42;7.50;;;3.30;;
4957;SDS011;2494;51.872;9.688;2023-05-24T01:22:34;8.27;;;2.97;;
4957;SDS011;2494;51.872;9.688;2023-05-24T01:25:26;11.00;;;3.20;;
4957;SDS011;2494;51.872;9.688;2023-05-24T01:28:13;11.40;;;3.93;;
4957;SDS011;2494;51.872;9.688;2023-05-24T01:30:59;8.83;;;3.40;;
4957;SDS011;2494;51.872;9.688;2023-05-24T01:33:45;7.60;;;2.87;;
4957;SDS011;2494;51.872;9.688;2023-05-24T01:36:30;12.93;;;3.20;;
4957;SDS011;2494;51.872;9.688;2023-05-24T01:39:15;10.10;;;4.50;;
4957;SDS011;2494;51.872;9.688;2023-05-24T01:42:03;10.87;;;2.90;;
4957;SDS011;2494;51.872;9.688;2023-05-24T01:44:56;12.87;;;3.70;;
4957;SDS011;2494;51.872;9.688;2023-05-24T01:47:48;16.30;;;4.73;;
4957;SDS011;2494;51.872;9.688;2023-05-24T01:50:35;11.50;;;4.13;;
4957;SDS011;2494;51.872;9.688;2023-05-24T01:53:21;19.47;;;4.30;;
4957;SDS011;2494;51.872;9.688;2023-05-24T01:56:08;8.43;;;3.30;;
4957;SDS011;2494;51.872;9.688;2023-05-24T01:58:55;12.87;;;3.90;;
4957;SDS011;2494;51.872;9.688;2023-05-24T02:01:42;9.07;;;3.53;;
4957;SDS011;2494;51.872;9.688;2023-05-24T02:04:27;11.90;;;3.37;;
4957;SDS011;2494;51.872;9.688;2023-05-24T02:07:12;8.03;;;3.10;;
4957;SDS011;2494;51.872;9.688;2023-05-24T02:09:57;7.20;;;3.10;;
4957;SDS011;2494;51.872;9.688;2023-05-24T02:12:42;8.17;;;3.10;;
4957;SDS011;2494;51.872;9.688;2023-05-24T02:15:26;8.00;;;2.83;;
4957;SDS011;2494;51.872;9.688;2023-05-24T02:18:14;6.93;;;3.13;;
4957;SDS011;2494;51.872;9.688;2023-05-24T02:21:01;11.30;;;2.80;;
4957;SDS011;2494;51.872;9.688;2023-05-24T02:23:45;16.53;;;3.67;;
4957;SDS011;2494;51.872;9.688;2023-05-24T02:26:30;8.03;;;4.67;;
4957;SDS011;2494;51.872;9.688;2023-05-24T02:29:15;8.43;;;3.20;;
4957;SDS011;2494;51.872;9.688;2023-05-24T02:32:00;9.90;;;3.20;;
4957;SDS011;2494;51.872;9.688;2023-05-24T02:34:46;17.77;;;3.10;;
4957;SDS011;2494;51.872;9.688;2023-05-24T02:37:31;11.90;;;3.27;;
4957;SDS011;2494;51.872;9.688;2023-05-24T02:40:16;7.77;;;4.23;;
4957;SDS011;2494;51.872;9.688;2023-05-24T02:43:01;13.43;;;4.73;;
4957;SDS011;2494;51.872;9.688;2023-05-24T02:45:46;12.17;;;3.87;;
4957;SDS011;2494;51.872;9.688;2023-05-24T02:48:31;11.73;;;3.27;;
4957;SDS011;2494;51.872;9.688;2023-05-24T02:51:18;14.97;;;4.13;;
4957;SDS011;2494;51.872;9.688;2023-05-24T02:54:03;13.20;;;4.10;;
4957;SDS011;2494;51.872;9.688;2023-05-24T02:56:48;8.97;;;3.03;;
4957;SDS011;2494;51.872;9.688;2023-05-24T02:59:33;11.53;;;4.57;;
4957;SDS011;2494;51.872;9.688;2023-05-24T03:02:18;17.50;;;4.87;;
4957;SDS011;2494;51.872;9.688;2023-05-24T03:05:05;15.00;;;4.40;;
4957;SDS011;2494;51.872;9.688;2023-05-24T03:07:51;11.57;;;4.07;;
4957;SDS011;2494;51.872;9.688;2023-05-24T03:10:36;14.27;;;4.40;;
4957;SDS011;2494;51.872;9.688;2023-05-24T03:13:21;10.43;;;4.67;;
4957;SDS011;2494;51.872;9.688;2023-05-24T03:16:06;14.63;;;4.67;;
4957;SDS011;2494;51.872;9.688;2023-05-24T03:18:51;14.67;;;4.80;;
4957;SDS011;2494;51.872;9.688;2023-05-24T03:21:38;21.33;;;5.00;;
4957;SDS011;2494;51.872;9.688;2023-05-24T03:24:24;15.87;;;4.47;;
4957;SDS011;2494;51.872;9.688;2023-05-24T03:27:10;19.17;;;4.50;;
4957;SDS011;2494;51.872;9.688;2023-05-24T03:29:54;9.10;;;3.47;;
4957;SDS011;2494;51.872;9.688;2023-05-24T03:32:39;17.00;;;4.13;;
4957;SDS011;2494;51.872;9.688;2023-05-24T03:35:24;24.00;;;4.90;;
4957;SDS011;2494;51.872;9.688;2023-05-24T03:38:09;26.63;;;5.10;;
4957;SDS011;2494;51.872;9.688;2023-05-24T03:40:56;7.40;;;3.93;;
4957;SDS011;2494;51.872;9.688;2023-05-24T03:43:41;12.77;;;4.67;;
4957;SDS011;2494;51.872;9.688;2023-05-24T03:46:25;11.60;;;4.47;;
4957;SDS011;2494;51.872;9.688;2023-05-24T03:49:10;11.53;;;3.47;;
4957;SDS011;2494;51.872;9.688;2023-05-24T03:51:55;13.67;;;4.53;;
4957;SDS011;2494;51.872;9.688;2023-05-24T03:54:40;12.60;;;3.93;;
4957;SDS011;2494;51.872;9.688;2023-05-24T03:57:27;18.10;;;4.70;;
4957;SDS011;2494;51.872;9.688;2023-05-24T04:00:12;14.90;;;4.80;;
4957;SDS011;2494;51.872;9.688;2023-05-24T04:02:57;12.17;;;4.53;;
4957;SDS011;2494;51.872;9.688;2023-05-24T04:05:43;21.67;;;6.00;;
4957;SDS011;2494;51.872;9.688;2023-05-24T04:08:28;10.13;;;3.87;;
4957;SDS011;2494;51.872;9.688;2023-05-24T04:11:14;10.00;;;4.47;;
4957;SDS011;2494;51.872;9.688;2023-05-24T04:14:01;13.13;;;5.30;;
4957;SDS011;2494;51.872;9.688;2023-05-24T04:16:47;19.33;;;5.00;;
4957;SDS011;2494;51.872;9.688;2023-05-24T04:19:32;11.50;;;4.10;;
4957;SDS011;2494;51.872;9.688;2023-05-24T04:22:18;15.77;;;4.97;;
4957;SDS011;2494;51.872;9.688;2023-05-24T04:25:04;13.17;;;6.00;;
4957;SDS011;2494;51.872;9.688;2023-05-24T04:27:49;15.57;;;4.73;;
4957;SDS011;2494;51.872;9.688;2023-05-24T04:30:35;12.83;;;4.33;;
4957;SDS011;2494;51.872;9.688;2023-05-24T04:33:21;13.33;;;5.70;;
4957;SDS011;2494;51.872;9.688;2023-05-24T04:36:06;14.43;;;5.73;;
4957;SDS011;2494;51.872;9.688;2023-05-24T04:38:54;21.53;;;4.33;;
4957;SDS011;2494;51.872;9.688;2023-05-24T04:41:40;11.93;;;5.10;;
4957;SDS011;2494;51.872;9.688;2023-05-24T04:44:25;14.23;;;3.93;;
4957;SDS011;2494;51.872;9.688;2023-05-24T04:47:12;7.30;;;3.73;;
4957;SDS011;2494;51.872;9.688;2023-05-24T04:49:57;14.07;;;4.40;;
4957;SDS011;2494;51.872;9.688;2023-05-24T04:52:42;17.73;;;4.27;;
4957;SDS011;2494;51.872;9.688;2023-05-24T04:55:27;13.70;;;4.50;;
4957;SDS011;2494;51.872;9.688;2023-05-24T04:58:12;17.40;;;4.90;;
4957;SDS011;2494;51.872;9.688;2023-05-24T05:00:57;16.07;;;4.77;;
4957;SDS011;2494;51.872;9.688;2023-05-24T05:03:43;6.63;;;3.63;;
4957;SDS011;2494;51.872;9.688;2023-05-24T05:06:28;14.13;;;4.53;;
4957;SDS011;2494;51.872;9.688;2023-05-24T05:09:14;13.20;;;4.80;;
4957;SDS011;2494;51.872;9.688;2023-05-24T05:11:59;11.57;;;5.07;;
4957;SDS011;2494;51.872;9.688;2023-05-24T05:14:45;14.90;;;5.00;;
4957;SDS011;2494;51.872;9.688;2023-05-24T05:17:30;17.10;;;4.50;;
4957;SDS011;2494;51.872;9.688;2023-05-24T05:20:16;15.10;;;4.73;;
4957;SDS011;2494;51.872;9.688;2023-05-24T05:23:01;14.47;;;5.77;;
4957;SDS011;2494;51.872;9.688;2023-05-24T05:25:47;14.03;;;4.23;;
4957;SDS011;2494;51.872;9.688;2023-05-24T05:28:32;16.60;;;5.23;;
4957;SDS011;2494;51.872;9.688;2023-05-24T05:31:17;14.03;;;4.97;;
4957;SDS011;2494;51.872;9.688;2023-05-24T05:34:02;19.10;;;5.67;;
4957;SDS011;2494;51.872;9.688;2023-05-24T05:36:48;14.03;;;4.70;;
4957;SDS011;2494;51.872;9.688;2023-05-24T05:39:34;12.83;;;5.70;;
4957;SDS011;2494;51.872;9.688;2023-05-24T05:42:19;9.83;;;4.90;;
4957;SDS011;2494;51.872;9.688;2023-05-24T05:45:05;11.97;;;4.87;;
4957;SDS011;2494;51.872;9.688;2023-05-24T05:47:50;17.47;;;5.37;;
4957;SDS011;2494;51.872;9.688;2023-05-24T05:50:35;13.83;;;5.23;;
4957;SDS011;2494;51.872;9.688;2023-05-24T05:53:21;13.60;;;5.40;;
4957;SDS011;2494;51.872;9.688;2023-05-24T05:56:08;16.37;;;4.47;;
4957;SDS011;2494;51.872;9.688;2023-05-24T05:58:53;15.47;;;6.63;;
4957;SDS011;2494;51.872;9.688;2023-05-24T06:01:39;20.63;;;5.20;;
4957;SDS011;2494;51.872;9.688;2023-05-24T06:04:25;19.03;;;5.30;;
4957;SDS011;2494;51.872;9.688;2023-05-24T06:07:13;13.60;;;4.70;;
4957;SDS011;2494;51.872;9.688;2023-05-24T06:10:00;18.80;;;6.17;;
4957;SDS011;2494;51.872;9.688;2023-05-24T06:12:45;21.47;;;5.80;;
4957;SDS011;2494;51.872;9.688;2023-05-24T06:15:30;19.53;;;5.47;;
4957;SDS011;2494;51.872;9.688;2023-05-24T06:18:15;21.73;;;5.70;;
4957;SDS011;2494;51.872;9.688;2023-05-24T06:21:01;20.53;;;5.27;;
4957;SDS011;2494;51.872;9.688;2023-05-24T06:23:46;21.37;;;5.63;;
4957;SDS011;2494;51.872;9.688;2023-05-24T06:26:33;24.53;;;6.30;;
4957;SDS011;2494;51.872;9.688;2023-05-24T06:29:20;25.40;;;5.60;;
4957;SDS011;2494;51.872;9.688;2023-05-24T06:32:05;27.17;;;5.00;;
4957;SDS011;2494;51.872;9.688;2023-05-24T06:34:50;16.63;;;5.20;;
4957;SDS011;2494;51.872;9.688;2023-05-24T06:37:35;13.73;;;4.80;;
4957;SDS011;2494;51.872;9.688;2023-05-24T06:40:21;20.37;;;4.80;;
4957;SDS011;2494;51.872;9.688;2023-05-24T06:43:08;12.93;;;4.80;;
4957;SDS011;2494;51.872;9.688;2023-05-24T06:45:53;14.50;;;4.90;;
4957;SDS011;2494;51.872;9.688;2023-05-24T06:48:39;16.60;;;5.43;;
4957;SDS011;2494;51.872;9.688;2023-05-24T06:51:24;18.00;;;5.67;;
4957;SDS011;2494;51.872;9.688;2023-05-24T06:54:09;13.90;;;4.20;;
4957;SDS011;2494;51.872;9.688;2023-05-24T06:56:54;17.87;;;4.87;;
4957;SDS011;2494;51.872;9.688;2023-05-24T06:59:42;13.57;;;5.00;;
4957;SDS011;2494;51.872;9.688;2023-05-24T07:02:27;16.43;;;5.20;;
4957;SDS011;2494;51.872;9.688;2023-05-24T07:05:12;13.30;;;4.97;;
4957;SDS011;2494;51.872;9.688;2023-05-24T07:07:57;15.87;;;4.07;;
4957;SDS011;2494;51.872;9.688;2023-05-24T07:10:42;21.50;;;5.60;;
4957;SDS011;2494;51.872;9.688;2023-05-24T07:13:28;11.77;;;4.23;;
4957;SDS011;2494;51.872;9.688;2023-05-24T07:16:14;10.40;;;4.20;;
4957;SDS011;2494;51.872;9.688;2023-05-24T07:18:59;13.43;;;4.07;;
4957;SDS011;2494;51.872;9.688;2023-05-24T07:21:44;13.80;;;4.60;;
4957;SDS011;2494;51.872;9.688;2023-05-24T07:24:29;15.00;;;4.47;;
4957;SDS011;2494;51.872;9.688;2023-05-24T07:27:14;11.70;;;4.77;;
4957;SDS011;2494;51.872;9.688;2023-05-24T07:29:59;11.53;;;4.50;;
4957;SDS011;2494;51.872;9.688;2023-05-24T07:32:46;13.17;;;4.07;;
4957;SDS011;2494;51.872;9.688;2023-05-24T07:35:31;9.13;;;4.10;;
4957;SDS011;2494;51.872;9.688;2023-05-24T07:38:16;14.47;;;3.80;;
4957;SDS011;2494;51.872;9.688;2023-05-24T07:41:02;10.00;;;3.30;;
4957;SDS011;2494;51.872;9.688;2023-05-24T07:43:48;18.00;;;3.30;;
4957;SDS011;2494;51.872;9.688;2023-05-24T07:46:33;12.00;;;4.43;;
4957;SDS011;2494;51.872;9.688;2023-05-24T07:49:20;12.60;;;4.03;;
4957;SDS011;2494;51.872;9.688;2023-05-24T07:52:05;11.67;;;3.77;;
4957;SDS011;2494;51.872;9.688;2023-05-24T07:54:51;14.67;;;3.90;;
4957;SDS011;2494;51.872;9.688;2023-05-24T07:57:36;10.37;;;4.20;;
4957;SDS011;2494;51.872;9.688;2023-05-24T08:00:21;14.07;;;4.30;;
4957;SDS011;2494;51.872;9.688;2023-05-24T08:03:06;14.20;;;3.77;;
4957;SDS011;2494;51.872;9.688;2023-05-24T08:05:53;8.43;;;3.00;;
4957;SDS011;2494;51.872;9.688;2023-05-24T08:08:38;10.33;;;3.73;;
4957;SDS011;2494;51.872;9.688;2023-05-24T08:11:24;10.40;;;3.80;;
4957;SDS011;2494;51.872;9.688;2023-05-24T08:14:09;15.00;;;4.70;;
4957;SDS011;2494;51.872;9.688;2023-05-24T08:16:54;15.97;;;3.90;;
4957;SDS011;2494;51.872;9.688;2023-05-24T08:19:39;10.10;;;3.50;;
4957;SDS011;2494;51.872;9.688;2023-05-24T08:22:25;8.73;;;3.93;;
4957;SDS011;2494;51.872;9.688;2023-05-24T08:25:11;12.97;;;4.27;;
4957;SDS011;2494;51.872;9.688;2023-05-24T08:27:56;12.77;;;3.30;;
4957;SDS011;2494;51.872;9.688;2023-05-24T08:30:41;11.47;;;4.10;;
4957;SDS011;2494;51.872;9.688;2023-05-24T08:33:27;11.53;;;4.27;;
4957;SDS011;2494;51.872;9.688;2023-05-24T08:36:13;12.80;;;4.20;;
4957;SDS011;2494;51.872;9.688;2023-05-24T08:38:59;17.90;;;3.63;;
4957;SDS011;2494;51.872;9.688;2023-05-24T08:41:45;12.87;;;3.93;;
4957;SDS011;2494;51.872;9.688;2023-05-24T08:44:30;12.20;;;4.27;;
4957;SDS011;2494;51.872;9.688;2023-05-24T08:47:15;13.93;;;3.53;;
4957;SDS011;2494;51.872;9.688;2023-05-24T08:50:01;13.57;;;5.03;;
4957;SDS011;2494;51.872;9.688;2023-05-24T08:52:46;9.97;;;3.13;;
4957;SDS011;2494;51.872;9.688;2023-05-24T08:55:33;12.40;;;4.57;;
4957;SDS011;2494;51.872;9.688;2023-05-24T08:58:19;9.10;;;3.47;;
4957;SDS011;2494;51.872;9.688;2023-05-24T09:01:04;9.43;;;3.30;;
4957;SDS011;2494;51.872;9.688;2023-05-24T09:03:50;10.00;;;3.77;;
4957;SDS011;2494;51.872;9.688;2023-05-24T09:06:35;13.47;;;3.70;;
4957;SDS011;2494;51.872;9.688;2023-05-24T09:09:20;10.90;;;4.40;;
4957;SDS011;2494;51.872;9.688;2023-05-24T09:12:07;13.30;;;5.73;;
4957;SDS011;2494;51.872;9.688;2023-05-24T09:14:53;16.40;;;5.87;;
4957;SDS011;2494;51.872;9.688;2023-05-24T09:17:38;8.33;;;3.80;;
4957;SDS011;2494;51.872;9.688;2023-05-24T09:20:24;17.30;;;4.50;;
4957;SDS011;2494;51.872;9.688;2023-05-24T09:23:09;10.77;;;4.53;;
4957;SDS011;2494;51.872;9.688;2023-05-24T09:25:55;9.00;;;4.00;;
4957;SDS011;2494;51.872;9.688;2023-05-24T09:28:42;8.03;;;3.33;;
4957;SDS011;2494;51.872;9.688;2023-05-24T09:31:31;10.77;;;4.07;;
4957;SDS011;2494;51.872;9.688;2023-05-24T09:34:16;11.40;;;3.50;;
4957;SDS011;2494;51.872;9.688;2023-05-24T09:37:01;9.90;;;4.33;;
4957;SDS011;2494;51.872;9.688;2023-05-24T09:39:47;11.33;;;3.77;;
4957;SDS011;2494;51.872;9.688;2023-05-24T09:42:33;15.27;;;4.37;;
4957;SDS011;2494;51.872;9.688;2023-05-24T09:45:20;9.93;;;4.37;;
4957;SDS011;2494;51.872;9.688;2023-05-24T09:48:09;9.77;;;4.30;;
4957;SDS011;2494;51.872;9.688;2023-05-24T09:50:58;15.23;;;4.17;;
4957;SDS011;2494;51.872;9.688;2023-05-24T09:53:44;9.93;;;3.73;;
4957;SDS011;2494;51.872;9.688;2023-05-24T09:56:33;14.30;;;4.10;;
4957;SDS011;2494;51.872;9.688;2023-05-24T09:59:22;8.77;;;3.63;;
4957;SDS011;2494;51.872;9.688;2023-05-24T10:02:10;8.37;;;2.23;;
4957;SDS011;2494;51.872;9.688;2023-05-24T10:04:57;6.00;;;3.07;;
4957;SDS011;2494;51.872;9.688;2023-05-24T10:07:42;7.60;;;2.10;;
4957;SDS011;2494;51.872;9.688;2023-05-24T10:10:29;10.43;;;2.33;;
4957;SDS011;2494;51.872;9.688;2023-05-24T10:13:14;6.70;;;2.43;;
4957;SDS011;2494;51.872;9.688;2023-05-24T10:16:01;8.43;;;3.10;;
4957;SDS011;2494;51.872;9.688;2023-05-24T10:18:48;8.50;;;3.57;;
4957;SDS011;2494;51.872;9.688;2023-05-24T10:21:36;6.47;;;3.20;;
4957;SDS011;2494;51.872;9.688;2023-05-24T10:24:25;8.63;;;3.97;;
4957;SDS011;2494;51.872;9.688;2023-05-24T10:27:11;9.30;;;3.03;;
4957;SDS011;2494;51.872;9.688;2023-05-24T10:29:58;9.37;;;3.20;;
4957;SDS011;2494;51.872;9.688;2023-05-24T10:32:45;7.87;;;3.47;;
4957;SDS011;2494;51.872;9.688;2023-05-24T10:35:33;9.37;;;4.00;;
4957;SDS011;2494;51.872;9.688;2023-05-24T10:38:21;11.50;;;3.80;;
4957;SDS011;2494;51.872;9.688;2023-05-24T10:41:07;12.83;;;3.63;;
4957;SDS011;2494;51.872;9.688;2023-05-24T10:43:53;9.47;;;3.10;;
4957;SDS011;2494;51.872;9.688;2023-05-24T10:49:48;8.47;;;3.00;;
4957;SDS011;2494;51.872;9.688;2023-05-24T10:52:36;6.97;;;2.90;;
4957;SDS011;2494;51.872;9.688;2023-05-24T10:55:22;6.63;;;2.60;;
4957;SDS011;2494;51.872;9.688;2023-05-24T10:58:10;7.87;;;3.40;;
4957;SDS011;2494;51.872;9.688;2023-05-24T11:00:56;8.40;;;2.53;;
4957;SDS011;2494;51.872;9.688;2023-05-24T11:03:41;4.00;;;2.43;;
4957;SDS011;2494;51.872;9.688;2023-05-24T11:09:27;6.27;;;2.10;;
4957;SDS011;2494;51.872;9.688;2023-05-24T11:12:13;4.07;;;1.67;;
4957;SDS011;2494;51.872;9.688;2023-05-24T11:14:58;2.90;;;1.60;;
4957;SDS011;2494;51.872;9.688;2023-05-24T11:20:49;6.27;;;2.40;;
4957;SDS011;2494;51.872;9.688;2023-05-24T11:23:35;3.63;;;2.00;;
4957;SDS011;2494;51.872;9.688;2023-05-24T11:26:22;2.43;;;1.70;;
4957;SDS011;2494;51.872;9.688;2023-05-24T11:29:07;3.00;;;1.70;;
4957;SDS011;2494;51.872;9.688;2023-05-24T11:31:53;5.00;;;2.50;;
4957;SDS011;2494;51.872;9.688;2023-05-24T11:34:40;6.97;;;2.37;;
4957;SDS011;2494;51.872;9.688;2023-05-24T11:37:28;4.90;;;2.60;;
4957;SDS011;2494;51.872;9.688;2023-05-24T11:40:13;8.37;;;2.57;;
4957;SDS011;2494;51.872;9.688;2023-05-24T11:43:01;5.53;;;2.87;;
4957;SDS011;2494;51.872;9.688;2023-05-24T11:45:50;4.10;;;2.40;;
4957;SDS011;2494;51.872;9.688;2023-05-24T11:48:36;10.20;;;2.77;;
4957;SDS011;2494;51.872;9.688;2023-05-24T11:51:24;7.63;;;3.10;;
4957;SDS011;2494;51.872;9.688;2023-05-24T11:54:10;4.03;;;2.87;;
4957;SDS011;2494;51.872;9.688;2023-05-24T11:56:55;7.03;;;3.33;;
4957;SDS011;2494;51.872;9.688;2023-05-24T11:59:42;3.50;;;2.80;;
4957;SDS011;2494;51.872;9.688;2023-05-24T12:02:28;7.47;;;3.30;;
4957;SDS011;2494;51.872;9.688;2023-05-24T12:05:13;6.40;;;3.03;;
4957;SDS011;2494;51.872;9.688;2023-05-24T12:08:02;4.70;;;3.00;;
4957;SDS011;2494;51.872;9.688;2023-05-24T12:10:50;3.40;;;2.40;;
4957;SDS011;2494;51.872;9.688;2023-05-24T12:13:38;5.17;;;2.67;;
4957;SDS011;2494;51.872;9.688;2023-05-24T12:16:25;3.97;;;2.73;;
4957;SDS011;2494;51.872;9.688;2023-05-24T12:19:15;4.67;;;2.27;;
4957;SDS011;2494;51.872;9.688;2023-05-24T12:22:02;4.90;;;2.87;;
4957;SDS011;2494;51.872;9.688;2023-05-24T12:24:48;4.10;;;3.13;;
4957;SDS011;2494;51.872;9.688;2023-05-24T12:27:34;2.20;;;2.10;;
4957;SDS011;2494;51.872;9.688;2023-05-24T12:30:20;3.73;;;2.50;;
4957;SDS011;2494;51.872;9.688;2023-05-24T12:33:07;7.30;;;2.40;;
4957;SDS011;2494;51.872;9.688;2023-05-24T12:35:52;6.00;;;2.97;;
4957;SDS011;2494;51.872;9.688;2023-05-24T12:38:39;4.20;;;2.00;;
4957;SDS011;2494;51.872;9.688;2023-05-24T12:41:24;3.57;;;3.27;;
4957;SDS011;2494;51.872;9.688;2023-05-24T12:44:10;6.03;;;2.83;;
4957;SDS011;2494;51.872;9.688;2023-05-24T12:46:56;3.50;;;2.00;;
4957;SDS011;2494;51.872;9.688;2023-05-24T12:49:43;3.87;;;2.53;;
4957;SDS011;2494;51.872;9.688;2023-05-24T12:52:28;7.77;;;2.57;;
4957;SDS011;2494;51.872;9.688;2023-05-24T12:55:13;3.77;;;2.47;;
4957;SDS011;2494;51.872;9.688;2023-05-24T12:57:58;6.30;;;2.57;;
4957;SDS011;2494;51.872;9.688;2023-05-24T13:00:46;3.63;;;2.97;;
4957;SDS011;2494;51.872;9.688;2023-05-24T13:03:32;6.60;;;2.50;;
4957;SDS011;2494;51.872;9.688;2023-05-24T13:06:19;7.00;;;3.30;;
4957;SDS011;2494;51.872;9.688;2023-05-24T13:09:04;5.40;;;3.00;;
4957;SDS011;2494;51.872;9.688;2023-05-24T13:11:50;5.63;;;3.77;;
4957;SDS011;2494;51.872;9.688;2023-05-24T13:14:36;6.37;;;3.80;;
4957;SDS011;2494;51.872;9.688;2023-05-24T13:17:21;4.50;;;3.47;;
4957;SDS011;2494;51.872;9.688;2023-05-24T13:20:07;4.20;;;3.90;;
4957;SDS011;2494;51.872;9.688;2023-05-24T13:22:55;7.30;;;4.77;;
4957;SDS011;2494;51.872;9.688;2023-05-24T13:25:40;4.73;;;3.20;;
4957;SDS011;2494;51.872;9.688;2023-05-24T13:28:26;4.97;;;3.00;;
4957;SDS011;2494;51.872;9.688;2023-05-24T13:31:11;5.50;;;4.00;;
4957;SDS011;2494;51.872;9.688;2023-05-24T13:33:57;5.50;;;3.50;;
4957;SDS011;2494;51.872;9.688;2023-05-24T13:36:43;7.20;;;4.33;;
4957;SDS011;2494;51.872;9.688;2023-05-24T13:39:30;4.50;;;3.80;;
4957;SDS011;2494;51.872;9.688;2023-05-24T13:42:15;7.53;;;4.03;;
4957;SDS011;2494;51.872;9.688;2023-05-24T13:45:00;4.83;;;3.20;;
4957;SDS011;2494;51.872;9.688;2023-05-24T13:47:46;4.37;;;3.97;;
4957;SDS011;2494;51.872;9.688;2023-05-24T13:50:31;8.03;;;3.23;;
4957;SDS011;2494;51.872;9.688;2023-05-24T13:53:17;8.30;;;3.50;;
4957;SDS011;2494;51.872;9.688;2023-05-24T13:56:03;2.90;;;2.70;;
4957;SDS011;2494;51.872;9.688;2023-05-24T13:58:48;5.67;;;3.70;;
4957;SDS011;2494;51.872;9.688;2023-05-24T14:01:34;5.40;;;3.97;;
4957;SDS011;2494;51.872;9.688;2023-05-24T14:04:20;7.60;;;4.63;;
4957;SDS011;2494;51.872;9.688;2023-05-24T14:07:05;4.60;;;4.10;;
4957;SDS011;2494;51.872;9.688;2023-05-24T14:09:51;5.20;;;3.60;;
4957;SDS011;2494;51.872;9.688;2023-05-24T14:12:38;5.17;;;3.83;;
4957;SDS011;2494;51.872;9.688;2023-05-24T14:15:25;4.00;;;3.70;;
4957;SDS011;2494;51.872;9.688;2023-05-24T14:18:09;3.97;;;3.60;;
4957;SDS011;2494;51.872;9.688;2023-05-24T14:20:55;5.80;;;4.40;;
4957;SDS011;2494;51.872;9.688;2023-05-24T14:23:41;3.83;;;2.57;;
4957;SDS011;2494;51.872;9.688;2023-05-24T14:26:26;2.90;;;2.47;;
4957;SDS011;2494;51.872;9.688;2023-05-24T14:29:12;8.20;;;2.87;;
4957;SDS011;2494;51.872;9.688;2023-05-24T14:31:57;4.47;;;2.80;;
4957;SDS011;2494;51.872;9.688;2023-05-24T14:34:42;5.33;;;3.37;;
4957;SDS011;2494;51.872;9.688;2023-05-24T14:37:28;3.27;;;2.97;;
4957;SDS011;2494;51.872;9.688;2023-05-24T14:40:13;4.87;;;2.73;;
4957;SDS011;2494;51.872;9.688;2023-05-24T14:43:00;4.97;;;2.73;;
4957;SDS011;2494;51.872;9.688;2023-05-24T14:45:47;2.97;;;2.67;;
4957;SDS011;2494;51.872;9.688;2023-05-24T14:48:32;3.87;;;2.40;;
4957;SDS011;2494;51.872;9.688;2023-05-24T14:51:18;3.73;;;2.67;;
4957;SDS011;2494;51.872;9.688;2023-05-24T14:54:03;4.07;;;2.60;;
4957;SDS011;2494;51.872;9.688;2023-05-24T14:56:49;5.60;;;3.00;;
4957;SDS011;2494;51.872;9.688;2023-05-24T14:59:34;4.30;;;3.07;;
4957;SDS011;2494;51.872;9.688;2023-05-24T15:02:20;6.80;;;3.47;;
4957;SDS011;2494;51.872;9.688;2023-05-24T15:05:06;3.70;;;2.63;;
4957;SDS011;2494;51.872;9.688;2023-05-24T15:07:51;4.80;;;2.70;;
4957;SDS011;2494;51.872;9.688;2023-05-24T15:10:36;4.10;;;2.83;;
4957;SDS011;2494;51.872;9.688;2023-05-24T15:13:22;3.30;;;2.80;;
4957;SDS011;2494;51.872;9.688;2023-05-24T15:16:08;4.20;;;3.03;;
4957;SDS011;2494;51.872;9.688;2023-05-24T15:18:55;3.27;;;2.63;;
4957;SDS011;2494;51.872;9.688;2023-05-24T15:21:40;2.63;;;2.43;;
4957;SDS011;2494;51.872;9.688;2023-05-24T15:24:25;6.37;;;3.60;;
4957;SDS011;2494;51.872;9.688;2023-05-24T15:27:10;3.03;;;2.63;;
4957;SDS011;2494;51.872;9.688;2023-05-24T15:29:55;4.80;;;2.83;;
4957;SDS011;2494;51.872;9.688;2023-05-24T15:32:42;4.50;;;2.70;;
4957;SDS011;2494;51.872;9.688;2023-05-24T15:35:30;3.23;;;2.70;;
4957;SDS011;2494;51.872;9.688;2023-05-24T15:38:15;3.00;;;2.70;;
4957;SDS011;2494;51.872;9.688;2023-05-24T15:41:01;3.50;;;2.50;;
4957;SDS011;2494;51.872;9.688;2023-05-24T15:43:49;3.80;;;2.97;;
4957;SDS011;2494;51.872;9.688;2023-05-24T15:46:34;3.20;;;2.50;;
4957;SDS011;2494;51.872;9.688;2023-05-24T15:49:21;5.80;;;3.13;;
4957;SDS011;2494;51.872;9.688;2023-05-24T15:52:09;5.10;;;3.50;;
4957;SDS011;2494;51.872;9.688;2023-05-24T15:54:55;8.20;;;3.10;;
4957;SDS011;2494;51.872;9.688;2023-05-24T15:57:40;6.07;;;3.40;;
4957;SDS011;2494;51.872;9.688;2023-05-24T16:00:25;7.80;;;3.40;;
4957;SDS011;2494;51.872;9.688;2023-05-24T16:03:10;3.30;;;3.00;;
4957;SDS011;2494;51.872;9.688;2023-05-24T16:05:58;5.83;;;3.07;;
4957;SDS011;2494;51.872;9.688;2023-05-24T16:08:44;5.30;;;3.10;;
4957;SDS011;2494;51.872;9.688;2023-05-24T16:11:30;3.60;;;2.73;;
4957;SDS011;2494;51.872;9.688;2023-05-24T16:14:15;4.47;;;3.03;;
4957;SDS011;2494;51.872;9.688;2023-05-24T16:17:01;3.20;;;2.90;;
4957;SDS011;2494;51.872;9.688;2023-05-24T16:19:47;4.60;;;3.67;;
4957;SDS011;2494;51.872;9.688;2023-05-24T16:22:32;4.90;;;4.13;;
4957;SDS011;2494;51.872;9.688;2023-05-24T16:25:20;5.77;;;4.33;;
4957;SDS011;2494;51.872;9.688;2023-05-24T16:28:05;7.83;;;4.30;;
4957;SDS011;2494;51.872;9.688;2023-05-24T16:30:50;7.17;;;4.33;;
4957;SDS011;2494;51.872;9.688;2023-05-24T16:33:38;6.87;;;4.20;;
4957;SDS011;2494;51.872;9.688;2023-05-24T16:36:24;4.40;;;3.70;;
4957;SDS011;2494;51.872;9.688;2023-05-24T16:39:09;6.40;;;4.77;;
4957;SDS011;2494;51.872;9.688;2023-05-24T16:41:56;4.50;;;4.00;;
4957;SDS011;2494;51.872;9.688;2023-05-24T16:44:41;6.63;;;4.77;;
4957;SDS011;2494;51.872;9.688;2023-05-24T16:47:26;9.97;;;4.50;;
4957;SDS011;2494;51.872;9.688;2023-05-24T16:50:11;6.10;;;5.07;;
4957;SDS011;2494;51.872;9.688;2023-05-24T16:52:58;5.07;;;4.57;;
4957;SDS011;2494;51.872;9.688;2023-05-24T16:55:43;5.53;;;5.03;;
4957;SDS011;2494;51.872;9.688;2023-05-24T16:58:30;7.17;;;5.90;;
4957;SDS011;2494;51.872;9.688;2023-05-24T17:01:15;7.57;;;5.20;;
4957;SDS011;2494;51.872;9.688;2023-05-24T17:04:01;5.00;;;4.57;;
4957;SDS011;2494;51.872;9.688;2023-05-24T17:06:47;15.83;;;6.13;;
4957;SDS011;2494;51.872;9.688;2023-05-24T17:09:33;8.97;;;6.00;;
4957;SDS011;2494;51.872;9.688;2023-05-24T17:12:19;11.90;;;5.30;;
4957;SDS011;2494;51.872;9.688;2023-05-24T17:15:06;11.50;;;6.33;;